• Join FlightAware (Why Join?)
  • Login
  • US Flag 
08:50AM EDT


 

Airport Tracker/Info


-or-


 

Live Flight TrackerFlight Track Log ✈ USC110 ✈ 28-Jul-2013 ✈ KFTY - KCLT

Flight Track Log - Related Links

Times and Time Zones

All times are in EDT time to prevent confusion due to time zone crossing. See the USC110 flight status page for this flight to view local times or setup timezone preferences in your user account.

Time Position Orientation Groundspeed Altitude Reporting Facility
EDT Latitude Longitude Course Direction KTS MPH feet Rate Location/Type
03:52PM 33.8167 -84.5500 360° North 127 146 2,800  Level Atlanta TRACON
03:53PM 33.8167 -84.5167 90° East 117 135 3,600 840 Climbing Atlanta TRACON
03:54PM 33.8167 -84.4667 90° East 125 144 4,500 720 Climbing Atlanta TRACON
03:55PM 33.8167 -84.4333 90° East 137 158 5,000 300 Climbing Atlanta TRACON
03:56PM 33.8167 -84.3833 90° East 169 194 5,100  Climbing Atlanta TRACON
03:57PM 33.8167 -84.3167 90° East 177 204 5,000 -60 Descending Atlanta TRACON
03:58PM 33.8167 -84.2667 90° East 178 205 5,000  Level Atlanta TRACON
03:59PM 33.8333 -84.2000 73° East 179 206 5,000  Level Atlanta TRACON
04:00PM 33.8333 -84.1500 90° East 179 206 5,000  Level Atlanta TRACON
04:01PM 33.8333 -84.0833 90° East 181 208 5,000 240 Level Atlanta TRACON
04:02PM 33.8333 -84.0333 90° East 172 198 5,500 660 Climbing Atlanta TRACON
04:03PM 33.8500 -83.9833 68° East 145 167 6,400 720 Climbing Atlanta TRACON
04:04PM 33.8500 -83.9333 90° East 145 167 7,000 240 Climbing Atlanta TRACON
04:05PM 33.8667 -83.8667 73° East 176 203 7,000  Level Atlanta TRACON
04:06PM 33.8667 -83.8167 90° East 180 207 7,000  Level Atlanta TRACON
04:07PM 33.8833 -83.7500 73° East 180 207 7,000 -60 Level Atlanta TRACON
04:08PM 33.8833 -83.7000 90° East 182 209 6,900 360 Descending Atlanta TRACON
04:09PM 33.9000 -83.6500 80° East 157 181 7,800 840 Climbing Atlanta TRACON
04:10PM 33.9000 -83.6000 90° East 132 152 8,700 480 Climbing Atlanta TRACON
04:11PM 33.9167 -83.5500 68° East 159 183 8,900 60 Climbing Atlanta TRACON
04:12PM 33.9167 -83.5000 90° East 182 209 8,900  Level Atlanta TRACON
04:13PM 33.9333 -83.4333 73° East 187 215 8,900  Level Atlanta TRACON
04:14PM 33.9333 -83.3667 90° East 187 215 8,900  Level Atlanta TRACON
04:15PM 33.9500 -83.3000 73° East 182 209 8,900  Level Atlanta TRACON
04:16PM 33.9667 -83.2500 68° East 184 212 8,900  Level Atlanta TRACON
04:17PM 33.9792 -83.1994 73° East 182 209 9,000  Climbing Atlanta Center
04:18PM 33.9933 -83.1419 73° East 181 208 9,000  Level Atlanta Center
04:19PM 34.0097 -83.0814 72° East 181 208 9,000  Level Atlanta Center
04:20PM 34.0258 -83.0236 71° East 181 208 9,000  Level Atlanta Center
04:21PM 34.0400 -82.9658 74° East 181 208 9,000  Level Atlanta Center
04:22PM 34.0561 -82.9056 72° East 181 208 9,000  Level Atlanta Center
04:23PM 34.0722 -82.8475 71° East 181 208 9,000  Level Atlanta Center
04:24PM 34.0864 -82.7872 74° East 181 208 9,000  Level Atlanta Center
04:25PM 34.1025 -82.7267 72° East 181 208 9,000  Level Atlanta Center
04:26PM 34.1183 -82.6664 72° East 181 208 9,000  Level Atlanta Center
04:27PM 34.1428 -82.6106 62° Northeast 181 208 9,000  Level Atlanta Center
04:28PM 34.1736 -82.5625 52° Northeast 181 208 9,000  Level Atlanta Center
04:29PM 34.2064 -82.5117 52° Northeast 181 208 9,000 -60 Level Atlanta Center
04:30PM 34.2392 -82.4658 49° Northeast 176 203 8,900  Descending Atlanta Center
04:31PM 34.2697 -82.4175 53° Northeast 176 203 9,000  Climbing Atlanta Center
04:32PM 34.3006 -82.3692 52° Northeast 176 203 9,000  Level Atlanta Center
04:33PM 34.3331 -82.3181 52° Northeast 181 208 9,000  Level Atlanta Center
04:34PM 34.3681 -82.2672 50° Northeast 181 208 9,000 -300 Level Atlanta Center
04:36PM 34.4057 -82.2096 52° Northeast  Level Estimated
04:43PM 34.6078 -81.8985 52° Northeast  Level Estimated
04:44PM 34.6366 -81.8539 52° Northeast  Level Estimated
04:45PM 34.6654 -81.8093 52° Northeast  Level Estimated
04:45PM 34.7178 -81.7267 52° Northeast 201 231 6,000  Level Atlanta Center
04:46PM 34.6942 -81.7647 52° Northeast  Level Estimated
04:46PM 34.7564 -81.6697 50° Northeast 205 236 5,500  Level Atlanta Center
04:47PM 34.7229 -81.7200 52° Northeast  Level Estimated
04:47PM 34.7697 -81.6061 76° East 208 239 5,000  Level Atlanta Center
04:48PM 34.7517 -81.6753 52° Northeast  Level Estimated
04:48PM 34.7725 -81.5353 87° East 194 223 4,900  Level Atlanta Center
04:49PM 34.7804 -81.6306 52° Northeast  Level Estimated
04:49PM 34.7900 -81.4667 73° East 188 216 4,900  Level Atlanta Center
04:50PM 34.8091 -81.5859 52° Northeast  Level Estimated
04:50PM 34.8033 -81.4106 74° East 189 217 4,900  Level Atlanta Center
04:51PM 34.8208 -81.3542 69° East 188 216 4,900  Level Atlanta Center
04:52PM 34.8361 -81.2856 75° East 189 217 4,900  Level Atlanta Center
04:53PM 34.8536 -81.2267 70° East 188 216 4,900  Level Atlanta Center
04:54PM 34.8708 -81.1653 71° East 187 215 4,900  Level Atlanta Center
04:55PM 34.8842 -81.1042 75° East 191 220 4,900  Level Atlanta Center
04:56PM 34.9014 -81.0403 72° East 190 219 4,900  Level Atlanta Center
04:57PM 34.9103 -80.9767 80° East 189 217 4,900  Level Atlanta Center
04:58PM 34.9147 -80.9131 85° East 188 216 4,900  Level Atlanta Center
04:59PM 34.9217 -80.8519 82° East 186 214 4,900  Level Atlanta Center
05:00PM 34.9281 -80.7833 84° East 189 217 4,900  Level Atlanta Center
05:01PM 34.9328 -80.7197 85° East 187 215 4,900  Level Atlanta Center
05:02PM 34.9394 -80.6561 83° East 185 213 4,900  Level Atlanta Center
05:03PM 34.9564 -80.5972 71° East 185 213 4,900  Level Atlanta Center
05:04PM 34.9950 -80.5550 42° Northeast 185 213 4,900  Level Atlanta Center
05:05PM 35.0356 -80.5153 39° Northeast 186 214 4,900 -300 Level Atlanta Center
05:06PM 35.0878 -80.5156 360° North 196 226 4,400 -480 Descending Atlanta Center
05:07PM 35.1425 -80.5311 347° North 187 215 4,000 -300 Descending Atlanta Center
05:08PM 35.1808 -80.5650 324° Northwest 176 203 3,900 -60 Descending Atlanta Center
05:09PM 35.2214 -80.5964 328° Northwest 170 196 3,900  Level Atlanta Center
05:10PM 35.2619 -80.6253 330° Northwest 169 194 3,900  Level Atlanta Center
05:11PM 35.2739 -80.6808 285° West 162 186 3,900  Level Atlanta Center
05:12PM 35.2858 -80.7414 284° West 164 189 3,900  Level Atlanta Center
05:13PM 35.2978 -80.7917 286° West 163 188 3,900  Level Atlanta Center
05:14PM 35.3339 -80.8208 327° Northwest 173 199 3,900  Level Atlanta Center
05:15PM 35.3822 -80.8342 347° North 179 206 3,900  Level Atlanta Center
05:16PM 35.4364 -80.8269 North 182 209 3,900  Level Atlanta Center
05:17PM 35.4758 -80.8231 North 147 169 3,900  Level Atlanta Center
05:18PM 35.4978 -80.8628 304° West 155 178 3,900  Level Atlanta Center
05:19PM 35.4761 -80.9097 240° Southwest 157 181 3,900 -240 Level Atlanta Center
05:20PM 35.4322 -80.9114 182° South 171 197 3,500 -540 Descending Atlanta Center
05:21PM 35.3861 -80.9081 177° South 148 170 2,900 -300 Descending Atlanta Center
05:22PM 35.3533 -80.9219 199° South 120 138 2,900 -300 Level Atlanta Center
05:23PM 35.3203 -80.9383 202° Southwest 140 161 2,400 -660 Descending Atlanta Center
05:24PM 35.2744 -80.9403 182° South 161 185 1,600 -720 Descending Atlanta Center
05:25PM 35.2283 -80.9394 179° South 156 180 900 -720 Descending Atlanta Center
05:27PM 35.2137 -80.9491 39° Northeast  Level Estimated